createdAt,value
2023-05-05T00:04:56.825Z,11.29
2023-05-05T00:10:00.138Z,11.32
2023-05-05T00:15:02.611Z,11.25
2023-05-05T00:20:05.872Z,11.17
2023-05-05T00:25:09.509Z,11.05
2023-05-05T00:30:11.926Z,10.92
2023-05-05T00:35:13.585Z,10.79
2023-05-05T00:40:17.265Z,10.73
2023-05-05T00:45:20.446Z,10.65
2023-05-05T00:50:23.858Z,10.51
2023-05-05T00:55:28.725Z,10.50
2023-05-05T01:00:31.161Z,10.49
2023-05-05T01:05:43.070Z,10.37
2023-05-05T01:10:53.174Z,10.30
2023-05-05T01:16:01.746Z,10.33
2023-05-05T01:21:13.189Z,10.24
2023-05-05T01:26:48.475Z,10.08
2023-05-05T01:31:54.147Z,10.07
2023-05-05T01:37:04.696Z,9.95
2023-05-05T01:42:10.185Z,9.90
2023-05-05T01:47:16.211Z,9.93
2023-05-05T01:52:19.174Z,9.86
2023-05-05T01:57:23.347Z,9.78
2023-05-05T02:02:29.259Z,9.63
2023-05-05T02:07:34.645Z,9.64
2023-05-05T02:12:37.790Z,9.58
2023-05-05T02:17:43.223Z,9.48
2023-05-05T02:22:45.689Z,9.42
2023-05-05T02:27:51.264Z,9.31
2023-05-05T02:33:00.016Z,9.25
2023-05-05T02:38:03.644Z,9.10
2023-05-05T02:43:10.027Z,9.04
2023-05-05T02:48:13.513Z,8.93
2023-05-05T02:53:15.781Z,8.80
2023-05-05T02:58:24.578Z,8.67
2023-05-05T03:03:36.476Z,8.59
2023-05-05T03:08:44.710Z,8.68
2023-05-05T03:13:51.409Z,8.62
2023-05-05T03:18:57.430Z,8.64
2023-05-05T03:23:59.957Z,8.52
2023-05-05T03:29:02.054Z,8.57
2023-05-05T03:34:05.858Z,8.54
2023-05-05T03:39:07.612Z,8.54
2023-05-05T03:44:10.015Z,8.63
2023-05-05T03:49:13.457Z,8.63
2023-05-05T03:54:15.708Z,8.59
2023-05-05T03:59:17.743Z,8.64
2023-05-05T04:04:21.271Z,8.74
2023-05-05T04:09:23.633Z,8.76
2023-05-05T04:14:26.131Z,8.80
2023-05-05T04:19:32.386Z,8.85
2023-05-05T04:24:34.519Z,8.92
2023-05-05T04:29:36.206Z,9.02
2023-05-05T04:34:39.428Z,9.42
2023-05-05T04:39:42.097Z,10.71
2023-05-05T04:44:44.155Z,11.47
2023-05-05T04:49:47.568Z,12.24
2023-05-05T04:54:49.682Z,12.41
2023-05-05T04:59:51.767Z,13.61
2023-05-05T05:04:55.696Z,14.06
2023-05-05T05:09:58.243Z,14.16
2023-05-05T05:15:00.389Z,13.21
2023-05-05T05:20:04.249Z,14.22
2023-05-05T05:25:07.084Z,14.87
2023-05-05T05:30:10.563Z,14.51
2023-05-05T05:35:14.167Z,14.80
2023-05-05T05:40:16.981Z,15.08
2023-05-05T05:45:19.399Z,15.79
2023-05-05T05:50:23.014Z,15.98
2023-05-05T05:55:24.846Z,16.06
2023-05-05T06:00:26.574Z,17.24
2023-05-05T06:05:29.904Z,16.98
2023-05-05T06:10:32.156Z,14.35
2023-05-05T06:15:34.167Z,14.16
2023-05-05T06:20:37.228Z,14.03
2023-05-05T06:25:39.350Z,14.24
2023-05-05T06:30:41.429Z,14.19
2023-05-05T06:35:44.878Z,13.97
2023-05-05T06:40:48.118Z,15.52
2023-05-05T06:45:50.635Z,15.05
2023-05-05T06:50:54.105Z,14.67
2023-05-05T06:55:55.810Z,15.25
2023-05-05T07:00:58.025Z,15.58
2023-05-05T07:06:01.136Z,15.63
2023-05-05T07:11:03.317Z,15.74
2023-05-05T07:16:06.487Z,15.10
2023-05-05T07:21:10.422Z,15.87
2023-05-05T07:26:12.903Z,15.66
2023-05-05T07:31:15.348Z,15.22
2023-05-05T07:36:19.070Z,15.69
2023-05-05T07:41:21.167Z,15.86
2023-05-05T07:46:23.380Z,16.06
2023-05-05T07:51:26.662Z,16.02
2023-05-05T07:56:28.996Z,16.17
2023-05-05T08:01:31.274Z,16.35
2023-05-05T08:06:34.924Z,16.39
2023-05-05T08:11:37.072Z,16.73
2023-05-05T08:16:39.338Z,16.38
2023-05-05T08:21:43.334Z,16.65
2023-05-05T08:26:45.707Z,17.03
2023-05-05T08:31:47.891Z,17.33
2023-05-05T08:36:51.839Z,17.74
2023-05-05T08:41:53.954Z,18.04
2023-05-05T08:46:56.970Z,17.99
2023-05-05T08:52:02.914Z,19.93
2023-05-05T08:57:09.304Z,20.59
2023-05-05T09:02:13.194Z,20.15
2023-05-05T09:07:17.312Z,22.33
2023-05-05T09:12:20.286Z,21.72
2023-05-05T09:17:23.479Z,21.71
2023-05-05T09:22:35.578Z,22.75
2023-05-05T09:27:38.371Z,23.94
2023-05-05T09:32:44.631Z,24.54
2023-05-05T09:37:48.195Z,22.48
2023-05-05T09:43:01.423Z,22.47
2023-05-05T09:48:05.637Z,23.20
2023-05-05T09:53:10.630Z,24.33
2023-05-05T09:58:19.261Z,23.98
2023-05-05T10:03:21.474Z,24.77
2023-05-05T10:08:26.460Z,24.00
2023-05-05T10:13:28.895Z,23.27
2023-05-05T10:18:32.526Z,25.86
2023-05-05T10:23:39.211Z,25.95
2023-05-05T10:28:44.469Z,26.97
2023-05-05T10:33:52.754Z,25.45
2023-05-05T10:38:56.912Z,25.05
2023-05-05T10:44:00.922Z,22.86
2023-05-05T10:49:13.550Z,24.09
2023-05-05T10:54:30.490Z,23.59
2023-05-05T10:59:42.856Z,23.27
2023-05-05T11:05:02.857Z,22.56
2023-05-05T11:10:07.874Z,21.31
2023-05-05T11:15:34.895Z,20.94
2023-05-05T11:21:02.970Z,21.54
2023-05-05T11:26:06.671Z,22.83
2023-05-05T11:31:19.978Z,22.96
2023-05-05T11:36:39.940Z,22.76
2023-05-05T11:42:16.375Z,22.31
2023-05-05T11:47:31.958Z,21.87
2023-05-05T11:52:34.454Z,22.47
2023-05-05T11:57:38.436Z,22.73
2023-05-05T12:02:40.696Z,22.49
2023-05-05T12:07:43.092Z,23.72
2023-05-05T12:12:47.038Z,23.30
2023-05-05T12:17:49.635Z,22.75
2023-05-05T12:22:51.911Z,22.89
2023-05-05T12:27:55.723Z,22.21
2023-05-05T12:33:02.578Z,22.44
2023-05-05T12:38:04.821Z,22.97
2023-05-05T12:43:07.946Z,23.11
2023-05-05T12:48:22.120Z,23.62
2023-05-05T12:53:25.461Z,23.29
2023-05-05T12:58:29.157Z,23.54
2023-05-05T13:03:31.401Z,23.36
2023-05-05T13:08:42.915Z,23.76
2023-05-05T13:13:46.289Z,23.20
2023-05-05T13:18:49.528Z,23.32
2023-05-05T13:23:51.875Z,24.08
2023-05-05T13:28:55.229Z,23.91
2023-05-05T13:33:57.191Z,24.21
2023-05-05T13:38:59.326Z,22.69
2023-05-05T13:44:03.110Z,23.95
2023-05-05T13:49:05.222Z,23.93
2023-05-05T13:54:07.988Z,23.49
2023-05-05T13:59:11.623Z,22.58
2023-05-05T14:04:13.739Z,22.41
2023-05-05T14:09:15.917Z,22.59
2023-05-05T14:14:19.369Z,22.05
2023-05-05T14:19:21.456Z,22.34
2023-05-05T14:24:23.212Z,23.74
2023-05-05T14:29:26.422Z,23.37
2023-05-05T14:34:28.334Z,23.45
2023-05-05T14:39:30.128Z,22.78
2023-05-05T14:44:33.268Z,22.63
2023-05-05T14:49:35.176Z,22.91
2023-05-05T14:54:37.088Z,22.73
2023-05-05T14:59:40.670Z,22.55
2023-05-05T15:04:42.925Z,21.84
2023-05-05T15:09:45.084Z,21.44
2023-05-05T15:14:48.462Z,21.45
2023-05-05T15:19:51.266Z,21.44
2023-05-05T15:24:53.663Z,21.41
2023-05-05T15:29:57.655Z,21.21
2023-05-05T15:35:01.040Z,20.89
2023-05-05T15:40:03.772Z,21.31
2023-05-05T15:45:08.425Z,21.05
2023-05-05T15:50:10.720Z,20.68
2023-05-05T15:55:12.689Z,20.65
2023-05-05T16:00:16.747Z,20.65
2023-05-05T16:05:21.358Z,20.59
2023-05-05T16:10:25.006Z,20.44
2023-05-05T16:15:28.085Z,20.37
2023-05-05T16:20:29.887Z,20.09
2023-05-05T16:25:31.592Z,19.96
2023-05-05T16:30:34.632Z,19.77
2023-05-05T16:35:36.376Z,19.47
2023-05-05T16:40:38.543Z,19.47
2023-05-05T16:45:42.139Z,19.32
2023-05-05T16:50:43.897Z,19.12
2023-05-05T16:55:50.130Z,19.15
2023-05-05T17:00:53.733Z,19.06
2023-05-05T17:05:55.836Z,18.91
2023-05-05T17:10:57.880Z,18.73
2023-05-05T17:16:01.001Z,18.67
2023-05-05T17:21:02.932Z,18.65
2023-05-05T17:26:04.885Z,18.56
2023-05-05T17:31:08.019Z,18.39
2023-05-05T17:36:10.383Z,18.46
2023-05-05T17:41:12.133Z,18.32
2023-05-05T17:46:15.231Z,18.26
2023-05-05T17:51:17.224Z,18.17
2023-05-05T17:56:19.127Z,18.09
2023-05-05T18:01:22.690Z,18.05
2023-05-05T18:06:25.093Z,17.97
2023-05-05T18:11:26.862Z,17.93
2023-05-05T18:16:30.112Z,17.81
2023-05-05T18:21:31.950Z,17.47
2023-05-05T18:26:33.721Z,17.16
2023-05-05T18:31:36.893Z,17.10
2023-05-05T18:36:38.813Z,17.17
2023-05-05T18:41:41.149Z,17.01
2023-05-05T18:46:44.536Z,16.75
2023-05-05T18:51:46.548Z,16.50
2023-05-05T18:56:48.483Z,16.45
2023-05-05T19:01:52.057Z,16.49
2023-05-05T19:06:54.326Z,16.45
2023-05-05T19:11:56.662Z,16.42
2023-05-05T19:17:00.066Z,16.38
2023-05-05T19:22:03.626Z,16.35
2023-05-05T19:27:05.628Z,16.27
2023-05-05T19:32:09.973Z,16.21
2023-05-05T19:37:12.209Z,16.18
2023-05-05T19:42:14.221Z,16.06
2023-05-05T19:47:17.318Z,15.99
2023-05-05T19:52:19.091Z,15.89
2023-05-05T19:57:21.020Z,15.80
2023-05-05T20:02:24.444Z,15.71
2023-05-05T20:07:26.310Z,15.63
2023-05-05T20:12:28.359Z,15.59
2023-05-05T20:17:32.047Z,15.50
2023-05-05T20:22:34.552Z,15.40
2023-05-05T20:27:39.366Z,15.38
2023-05-05T20:32:43.164Z,15.34
2023-05-05T20:37:44.811Z,15.15
2023-05-05T20:42:46.998Z,14.98
2023-05-05T20:47:50.248Z,14.74
2023-05-05T20:52:52.704Z,14.67
2023-05-05T20:57:55.056Z,14.44
2023-05-05T21:02:58.644Z,14.10
2023-05-05T21:08:01.261Z,13.84
2023-05-05T21:13:03.911Z,13.66
2023-05-05T21:18:07.405Z,13.63
2023-05-05T21:23:09.257Z,13.65
2023-05-05T21:28:11.419Z,13.49
2023-05-05T21:33:15.129Z,13.10
2023-05-05T21:38:16.899Z,12.93
2023-05-05T21:43:18.996Z,12.82
2023-05-05T21:48:22.547Z,12.70
2023-05-05T21:53:24.500Z,12.64
2023-05-05T21:58:26.931Z,12.45
2023-05-05T22:03:30.587Z,12.28
2023-05-05T22:08:32.797Z,12.11
2023-05-05T22:13:34.910Z,11.93
2023-05-05T22:18:38.488Z,11.76
2023-05-05T22:23:40.579Z,11.67
2023-05-05T22:28:42.727Z,11.72
2023-05-05T22:33:46.233Z,11.67
2023-05-05T22:38:48.278Z,11.50
2023-05-05T22:43:50.390Z,11.17
2023-05-05T22:48:53.810Z,11.14
2023-05-05T22:53:56.064Z,10.96
2023-05-05T22:58:58.514Z,11.05
2023-05-05T23:04:02.175Z,11.04
2023-05-05T23:09:04.356Z,10.77
2023-05-05T23:14:06.476Z,10.55
2023-05-05T23:19:09.876Z,10.57
2023-05-05T23:24:11.945Z,10.45
2023-05-05T23:29:13.696Z,10.21
2023-05-05T23:34:17.268Z,10.47
2023-05-05T23:39:19.324Z,10.31
2023-05-05T23:44:21.461Z,10.28
2023-05-05T23:49:24.985Z,10.30
2023-05-05T23:54:27.009Z,10.03
2023-05-05T23:59:29.303Z,10.06
